This is the latest recevied weather packets stored in our database for station/object N7WLC. If no packets are shown the sender has not sent any weather packets the latest 10 day(s).
| Time | Temp. | Humidity | Pressure | Rain* | Wind** | Luminosity | Snow |
|---|---|---|---|---|---|---|---|
| 1777947506 | 15.56° C | 72% | 1014.4 hPa | 0 mm | 0 m/s | - | - |
| 1777945705 | 15.56° C | 71% | 1014.2 hPa | 0 mm | 0 m/s | - | - |
| 1777943906 | 16.67° C | 64% | 1014.6 hPa | 0 mm | 0 m/s | - | - |
| 1777942105 | 16.67° C | 64% | 1014.8 hPa | 0 mm | 0 m/s | - | - |
| 1777940305 | 17.22° C | 58% | 1014.6 hPa | 0 mm | 0.45 m/s, 229° | - | - |
| 1777938506 | 18.33° C | 54% | 1014.4 hPa | 0 mm | 0.45 m/s, 224° | - | - |
| 1777936706 | 18.89° C | 54% | 1014.5 hPa | 0 mm | 0.45 m/s, 218° | - | - |
| 1777934905 | 20° C | 52% | 1014.7 hPa | 0 mm | 0.45 m/s, 230° | - | - |
| 1777933106 | 19.44° C | 52% | 1014.9 hPa | 0 mm | 0.89 m/s, 215° | - | - |
| 1777931305 | 20.56° C | 47% | 1015.4 hPa | 0 mm | 0.45 m/s, 243° | - | - |
| 1777929505 | 21.11° C | 45% | 1015.4 hPa | 0 mm | 0.45 m/s, 236° | - | - |
| 1777927706 | 21.67° C | 43% | 1015.1 hPa | 0 mm | 0.45 m/s, 229° | - | - |
| 1777925905 | 22.22° C | 42% | 1015 hPa | 0 mm | 0.89 m/s, 225° | - | - |
| 1777924105 | 21.67° C | 38% | 1015.1 hPa | 0 mm | 0 m/s | - | - |
| 1777922306 | 21.67° C | 42% | 1015 hPa | 0 mm | 0.45 m/s, 209° | - | - |
| 1777920506 | 21.11° C | 46% | 1015.5 hPa | 0 mm | 0.45 m/s, 209° | - | - |
| 1777918705 | 21.67° C | 44% | 1015.6 hPa | 0 mm | 0 m/s | - | - |
| 1777916906 | 20.56° C | 50% | 1015.3 hPa | 0 mm | 0 m/s | - | - |
| 1777915105 | 20° C | 52% | 1015.4 hPa | 0 mm | 0.45 m/s, 237° | - | - |
| 1777913306 | 19.44° C | 53% | 1015.4 hPa | 0 mm | 0 m/s | - | - |
| 1777911506 | 18.33° C | 52% | 1015.3 hPa | 0 mm | 0.89 m/s, 147° | - | - |
| 1777909705 | 17.22° C | 58% | 1015 hPa | 0 mm | 0.45 m/s, 217° | - | - |
| 1777907906 | 15.56° C | 69% | 1015 hPa | 0 mm | 0 m/s | - | - |
| 1777906105 | 15° C | 73% | 1014.9 hPa | 0 mm | 0 m/s | - | - |
| 1777904305 | 12.78° C | 82% | 1014.8 hPa | 0 mm | 0 m/s | - | - |
* Rain latest hour (hover to see other rain measurements)
** Current wind speed in m/s (hover to see current wind gust speed)